Time;durP1;ratioP1;P1;durP2;ratioP2;P2;SDS_P1;SDS_P2;PMS_P1;PMS_P2;Temp;Humidity;BMP_temperature;BMP_pressure;BME280_temperature;BME280_humidity;BME280_pressure;Samples;Min_cycle;Max_cycle;Signal;HPM_P1;HPM_P2
2023/06/13 00:02:20;;;;;;;5.27;3.87;;;;;;;15.97;49.09;101130.41;5039483;28;20402;-83
2023/06/13 00:04:51;;;;;;;6.33;3.83;;;;;;;15.92;49.08;101126.69;5044095;28;20567;-83
2023/06/13 00:07:22;;;;;;;4.60;3.33;;;;;;;15.76;49.40;101125.44;5044163;28;20536;-82
2023/06/13 00:09:51;;;;;;;8.37;4.57;;;;;;;15.68;49.68;101128.50;5048677;28;20450;-82
2023/06/13 00:12:21;;;;;;;4.27;3.87;;;;;;;15.78;49.57;101120.56;5045465;28;20486;-84
2023/06/13 00:14:51;;;;;;;6.30;3.70;;;;;;;15.60;50.21;101128.78;5044455;28;20435;-83
2023/06/13 00:17:25;;;;;;;9.07;4.17;;;;;;;15.60;50.21;101123.31;5037518;28;20479;-83
2023/06/13 00:19:55;;;;;;;5.03;4.20;;;;;;;15.71;49.89;101114.38;5037831;28;20503;-83
2023/06/13 00:22:26;;;;;;;3.90;3.40;;;;;;;15.74;50.77;101113.91;5052779;28;20892;-84
2023/06/13 00:24:55;;;;;;;4.37;3.40;;;;;;;15.88;49.80;101111.81;5058336;28;20402;-83
2023/06/13 00:27:24;;;;;;;3.67;3.27;;;;;;;15.56;50.41;101112.06;5058043;28;20469;-81
2023/06/13 00:29:54;;;;;;;5.53;3.67;;;;;;;15.50;50.36;101112.09;5050021;28;20435;-83
2023/06/13 00:32:24;;;;;;;4.70;3.80;;;;;;;15.48;50.51;101115.06;5045840;28;20463;-82
2023/06/13 00:34:56;;;;;;;5.43;4.10;;;;;;;15.44;50.73;101118.47;5045959;28;20495;-82
2023/06/13 00:37:29;;;;;;;3.37;3.07;;;;;;;15.38;51.01;101114.78;5039399;28;20439;-82
2023/06/13 00:39:59;;;;;;;4.90;3.10;;;;;;;15.33;51.11;101113.78;5047077;28;20432;-82
2023/06/13 00:42:31;;;;;;;4.60;3.77;;;;;;;15.58;50.19;101109.09;5046382;28;20401;-83
2023/06/13 00:45:22;;;;;;;5.47;3.47;;;;;;;15.34;50.80;101101.81;5038620;28;20406;-83
2023/06/13 00:47:54;;;;;;;4.00;3.20;;;;;;;15.32;50.53;101103.94;5052412;28;20405;-82
2023/06/13 00:50:28;;;;;;;4.00;3.60;;;;;;;15.30;50.84;101106.06;5034870;28;20420;-83
2023/06/13 00:53:00;;;;;;;5.20;3.47;;;;;;;15.18;50.83;101098.66;5051563;28;20481;-82
2023/06/13 00:55:30;;;;;;;4.93;3.83;;;;;;;15.20;50.97;101101.97;5041793;28;21028;-82
2023/06/13 00:58:06;;;;;;;5.57;3.10;;;;;;;15.13;51.25;101101.22;5042389;28;20423;-82
2023/06/13 01:00:36;;;;;;;6.27;4.17;;;;;;;15.17;51.28;101094.25;5047139;28;20399;-82
2023/06/13 01:03:09;;;;;;;4.03;3.27;;;;;;;15.18;51.24;101095.91;5054174;28;20452;-83
2023/06/13 01:05:39;;;;;;;8.60;3.50;;;;;;;15.16;51.34;101095.31;5051026;28;20974;-82
2023/06/13 01:08:13;;;;;;;4.07;3.27;;;;;;;15.05;51.61;101092.53;5055525;28;20819;-82
2023/06/13 01:10:42;;;;;;;4.00;3.37;;;;;;;15.02;51.69;101087.50;5055046;28;20779;-82
2023/06/13 01:13:28;;;;;;;4.17;3.57;;;;;;;14.97;52.71;101096.34;5042330;28;20505;-82
2023/06/13 01:16:04;;;;;;;4.00;3.60;;;;;;;14.97;51.92;101090.91;5057861;28;20435;-81
2023/06/13 01:18:39;;;;;;;4.60;3.70;;;;;;;14.88;52.41;101086.81;5052569;28;20436;-82
2023/06/13 01:21:10;;;;;;;3.80;3.30;;;;;;;14.77;52.72;101096.56;5045382;28;20523;-81
2023/06/13 01:23:49;;;;;;;6.77;3.70;;;;;;;14.67;53.02;101096.25;5045052;28;20458;-82
2023/06/13 01:26:33;;;;;;;5.50;3.77;;;;;;;14.67;53.29;101095.41;5039592;28;20468;-82
2023/06/13 01:29:06;;;;;;;4.80;3.60;;;;;;;14.64;53.31;101090.41;5036995;28;20909;-82
2023/06/13 01:31:37;;;;;;;4.70;3.63;;;;;;;14.57;53.52;101100.56;5042118;28;20520;-82
2023/06/13 01:34:07;;;;;;;6.80;3.03;;;;;;;14.60;53.73;101094.66;5041478;28;20464;-82
2023/06/13 01:36:37;;;;;;;4.90;3.13;;;;;;;14.70;53.62;101090.38;5040087;28;20442;-83
2023/06/13 01:39:07;;;;;;;4.10;3.57;;;;;;;14.63;53.94;101088.75;5057704;28;20551;-81
2023/06/13 01:41:36;;;;;;;4.33;3.93;;;;;;;14.60;54.08;101089.19;5065105;28;20515;-81
2023/06/13 01:44:08;;;;;;;3.40;3.10;;;;;;;14.52;54.32;101086.78;5058047;28;20426;-81
2023/06/13 01:46:50;;;;;;;5.53;3.60;;;;;;;14.40;54.86;101088.53;5056232;28;20469;-81
2023/06/13 01:49:30;;;;;;;4.27;3.40;;;;;;;14.34;55.06;101091.06;5059071;28;20503;-80
2023/06/13 01:52:19;;;;;;;7.90;3.80;;;;;;;14.31;55.43;101075.19;5057502;28;20408;-80
2023/06/13 01:54:55;;;;;;;4.30;3.63;;;;;;;14.16;55.87;101077.41;5044947;28;20456;-83
2023/06/13 01:57:31;;;;;;;5.93;3.63;;;;;;;14.11;56.19;101081.81;5047609;28;20433;-82
2023/06/13 02:00:04;;;;;;;3.83;3.53;;;;;;;13.96;56.80;101087.59;5037638;28;20428;-82
2023/06/13 02:02:42;;;;;;;6.30;3.57;;;;;;;14.12;56.78;101076.19;5040264;28;20398;-82
2023/06/13 02:05:12;;;;;;;3.63;3.33;;;;;;;13.94;57.08;101082.34;5040165;28;20474;-83
2023/06/13 02:07:42;;;;;;;4.03;3.63;;;;;;;13.80;57.69;101082.66;5039558;28;20448;-82
2023/06/13 02:10:11;;;;;;;6.03;3.50;;;;;;;13.84;57.74;101079.31;5049767;28;20399;-82
2023/06/13 02:12:41;;;;;;;5.53;3.50;;;;;;;13.84;57.88;101083.91;5034178;28;20406;-81
2023/06/13 02:15:12;;;;;;;5.10;3.43;;;;;;;13.89;57.94;101076.72;5041163;28;20464;-83
2023/06/13 02:17:41;;;;;;;4.13;3.73;;;;;;;13.93;57.79;101082.59;5052226;28;20442;-82
2023/06/13 02:20:12;;;;;;;5.00;3.23;;;;;;;13.79;58.30;101083.72;5051637;28;20440;-83
2023/06/13 02:22:42;;;;;;;4.00;3.70;;;;;;;13.69;58.50;101080.66;5058076;28;20447;-82
2023/06/13 02:25:11;;;;;;;7.00;3.90;;;;;;;13.65;58.97;101082.16;5051169;28;20439;-83
2023/06/13 02:27:40;;;;;;;5.60;4.30;;;;;;;13.61;59.06;101078.16;5040767;28;20794;-83
2023/06/13 02:30:11;;;;;;;3.30;3.00;;;;;;;13.72;59.38;101074.75;5042485;28;20585;-83
2023/06/13 02:32:41;;;;;;;8.20;3.93;;;;;;;13.69;58.97;101076.06;5051569;28;20829;-83
2023/06/13 02:35:12;;;;;;;3.80;3.40;;;;;;;13.76;58.96;101082.28;5045247;28;20570;-84
2023/06/13 02:37:43;;;;;;;4.03;3.60;;;;;;;13.57;59.48;101087.81;5040142;28;20474;-83
2023/06/13 02:40:12;;;;;;;6.07;3.80;;;;;;;13.60;59.57;101076.53;5047566;28;20429;-81
2023/06/13 02:42:46;;;;;;;4.73;4.00;;;;;;;13.61;59.66;101072.72;5042588;28;20428;-83
2023/06/13 02:45:17;;;;;;;5.03;3.80;;;;;;;13.45;60.08;101069.50;5044795;28;20447;-83
2023/06/13 02:47:47;;;;;;;6.97;4.40;;;;;;;13.59;60.03;101080.28;5048527;28;20857;-83
2023/06/13 02:50:16;;;;;;;4.27;3.87;;;;;;;13.57;60.08;101075.06;5032350;28;20439;-83
2023/06/13 02:52:47;;;;;;;8.60;3.40;;;;;;;13.52;60.25;101079.47;5038361;28;20939;-83
2023/06/13 02:55:20;;;;;;;4.10;3.80;;;;;;;13.46;60.53;101071.13;5033071;28;20480;-83
2023/06/13 02:57:49;;;;;;;4.60;3.40;;;;;;;13.51;60.93;101072.38;5049491;28;20406;-82
2023/06/13 03:00:20;;;;;;;6.10;4.10;;;;;;;13.42;61.13;101069.06;5039989;28;20406;-83
2023/06/13 03:03:03;;;;;;;4.57;4.13;;;;;;;13.47;61.08;101069.25;5046621;28;20423;-82
2023/06/13 03:05:36;;;;;;;7.10;4.23;;;;;;;13.61;60.79;101070.00;5038548;28;20717;-83
2023/06/13 03:08:07;;;;;;;4.70;3.83;;;;;;;13.54;61.01;101064.63;5031880;28;20527;-83
2023/06/13 03:10:36;;;;;;;4.90;4.47;;;;;;;13.87;61.13;101058.97;5045208;28;20483;-82
2023/06/13 03:13:06;;;;;;;4.33;3.87;;;;;;;13.83;60.44;101063.19;5065022;28;20470;-83
2023/06/13 03:15:38;;;;;;;5.80;4.30;;;;;;;13.72;60.90;101058.44;5063692;28;20480;-82
2023/06/13 03:18:07;;;;;;;5.80;3.63;;;;;;;13.81;60.70;101059.84;5060373;28;20478;-82
2023/06/13 03:20:37;;;;;;;3.97;3.60;;;;;;;14.46;59.67;101057.69;5067676;28;20423;-82
2023/06/13 03:23:06;;;;;;;4.07;3.67;;;;;;;14.12;59.61;101053.56;5061432;28;20419;-81
2023/06/13 03:25:35;;;;;;;11.60;4.57;;;;;;;14.01;60.31;101060.56;5057887;28;20525;-81
2023/06/13 03:28:05;;;;;;;5.97;5.37;;;;;;;13.84;60.66;101062.97;5056766;28;20428;-81
2023/06/13 03:30:35;;;;;;;4.50;4.10;;;;;;;13.63;61.67;101051.59;5053543;28;20449;-82
2023/06/13 03:33:06;;;;;;;8.63;4.27;;;;;;;13.54;62.28;101051.03;5061570;28;20408;-81
2023/06/13 03:35:40;;;;;;;4.30;3.80;;;;;;;13.69;62.25;101048.84;5059897;28;20475;-83
2023/06/13 03:38:09;;;;;;;4.73;4.23;;;;;;;13.81;61.55;101052.53;5034063;28;20457;-83
2023/06/13 03:40:39;;;;;;;10.97;4.37;;;;;;;13.76;61.99;101048.78;5044082;28;20432;-82
2023/06/13 03:43:08;;;;;;;3.90;3.50;;;;;;;13.76;62.06;101051.50;5050081;28;20439;-83
2023/06/13 03:45:37;;;;;;;4.20;3.80;;;;;;;13.87;61.95;101048.09;5055843;28;20465;-83
2023/06/13 03:48:08;;;;;;;4.10;3.43;;;;;;;13.99;61.64;101049.03;5048664;28;20422;-83
2023/06/13 03:50:37;;;;;;;5.67;4.97;;;;;;;14.05;61.57;101041.88;5050673;28;20417;-84
2023/06/13 03:53:07;;;;;;;4.77;3.97;;;;;;;14.32;60.92;101044.19;5051886;28;20480;-83
2023/06/13 03:55:36;;;;;;;6.63;4.50;;;;;;;14.24;61.11;101047.16;5051267;28;20434;-82
2023/06/13 03:58:06;;;;;;;4.67;4.00;;;;;;;14.18;61.44;101047.25;5045129;28;20452;-83
2023/06/13 04:00:39;;;;;;;4.90;4.30;;;;;;;14.08;61.89;101042.31;5046893;28;20432;-82
2023/06/13 04:03:10;;;;;;;4.00;3.63;;;;;;;14.44;61.10;101046.19;5045368;28;20529;-82
2023/06/13 04:05:39;;;;;;;6.30;4.17;;;;;;;15.05;59.21;101043.47;5038966;28;20466;-83
2023/06/13 04:08:08;;;;;;;6.63;4.80;;;;;;;15.93;56.65;101036.38;5053414;28;20466;-83
2023/06/13 04:10:38;;;;;;;5.10;4.60;;;;;;;16.68;54.32;101033.84;5043335;28;20559;-83
2023/06/13 04:13:08;;;;;;;5.03;4.57;;;;;;;17.56;51.81;101044.47;5033777;28;20447;-83
2023/06/13 04:15:37;;;;;;;7.70;4.30;;;;;;;17.14;52.69;101059.44;5052738;28;20454;-82
2023/06/13 04:18:06;;;;;;;13.13;4.60;;;;;;;17.68;51.43;101045.25;5042930;28;20617;-83
2023/06/13 04:20:38;;;;;;;8.87;4.40;;;;;;;18.35;49.32;101039.03;5039803;28;20409;-82
2023/06/13 04:23:07;;;;;;;4.40;4.00;;;;;;;18.09;50.11;101046.81;5056656;28;20478;-83
2023/06/13 04:25:36;;;;;;;5.57;5.10;;;;;;;17.45;51.51;101049.97;5039976;28;20422;-83
2023/06/13 04:28:08;;;;;;;6.77;4.40;;;;;;;16.66;53.97;101057.84;5056092;28;20521;-82
2023/06/13 04:30:40;;;;;;;8.60;4.43;;;;;;;16.63;53.87;101050.13;5054416;28;20410;-82
2023/06/13 04:33:16;;;;;;;7.00;4.77;;;;;;;16.46;54.82;101051.88;5036977;28;20444;-82
2023/06/13 04:35:48;;;;;;;6.03;4.60;;;;;;;16.37;55.07;101061.47;5047458;28;20453;-82
2023/06/13 04:38:20;;;;;;;6.10;5.27;;;;;;;17.29;53.09;101067.97;5043784;28;20443;-82
2023/06/13 04:40:49;;;;;;;5.10;4.70;;;;;;;19.04;48.41;101054.03;5052789;28;20406;-81
2023/06/13 04:43:18;;;;;;;4.70;4.30;;;;;;;19.70;47.05;101061.19;5042577;28;20934;-82
2023/06/13 04:45:48;;;;;;;6.83;5.67;;;;;;;20.56;44.85;101064.72;5050839;28;20413;-82
2023/06/13 04:48:18;;;;;;;8.13;4.80;;;;;;;19.94;45.28;101067.19;5057515;28;20395;-82
2023/06/13 04:50:48;;;;;;;6.67;4.60;;;;;;;20.00;45.26;101062.56;5061086;28;20394;-82
2023/06/13 04:53:21;;;;;;;4.93;4.37;;;;;;;20.34;44.38;101053.00;5071788;28;20395;-82
2023/06/13 04:55:53;;;;;;;5.63;5.10;;;;;;;20.90;43.39;101069.91;5061325;28;20455;-81
2023/06/13 04:58:23;;;;;;;6.10;4.60;;;;;;;19.96;44.78;101065.84;5054594;28;20412;-83
2023/06/13 05:00:52;;;;;;;5.70;4.50;;;;;;;21.27;42.39;101056.91;5065503;28;20415;-82
2023/06/13 05:03:23;;;;;;;11.30;5.40;;;;;;;22.00;40.63;101054.91;5046332;28;20425;-82
2023/06/13 05:05:56;;;;;;;6.50;4.70;;;;;;;22.34;39.67;101050.53;5041892;28;20423;-82
2023/06/13 05:08:26;;;;;;;9.27;5.77;;;;;;;21.40;41.53;101058.31;5045573;28;20399;-82
2023/06/13 05:10:55;;;;;;;7.67;5.27;;;;;;;22.88;38.95;101048.00;5051762;28;20501;-83
2023/06/13 05:13:24;;;;;;;8.33;5.57;;;;;;;23.49;37.18;101044.19;5042874;28;20456;-82
2023/06/13 05:15:54;;;;;;;9.80;5.60;;;;;;;22.91;37.77;101043.81;5060707;28;20565;-80
2023/06/13 05:18:29;;;;;;;7.60;5.27;;;;;;;22.79;38.02;101046.09;5071610;28;20406;-80
2023/06/13 05:21:01;;;;;;;9.47;5.80;;;;;;;21.38;40.58;101052.25;5060960;28;20408;-80
2023/06/13 05:23:30;;;;;;;4.90;4.43;;;;;;;22.54;39.05;101055.19;5045685;28;20404;-80
2023/06/13 05:25:59;;;;;;;7.30;5.70;;;;;;;22.27;39.22;101049.16;5056355;28;20439;-80
2023/06/13 05:28:28;;;;;;;6.77;5.70;;;;;;;21.78;39.69;101046.88;5051448;28;20621;-84
2023/06/13 05:31:00;;;;;;;8.57;5.50;;;;;;;21.91;40.09;101045.50;5057009;28;20463;-83
2023/06/13 05:33:30;;;;;;;10.70;5.17;;;;;;;20.76;41.59;101044.78;5057032;28;20441;-82
2023/06/13 05:36:01;;;;;;;7.93;6.50;;;;;;;21.30;41.46;101041.78;5050146;28;20467;-84
2023/06/13 05:38:31;;;;;;;7.57;6.10;;;;;;;21.00;41.81;101042.44;5060543;28;20431;-83
2023/06/13 05:41:00;;;;;;;12.87;5.53;;;;;;;19.96;43.83;101054.00;5057333;28;20434;-83
2023/06/13 05:43:29;;;;;;;14.00;5.40;;;;;;;18.88;46.02;101050.25;5062758;28;20437;-83
2023/06/13 05:45:59;;;;;;;5.87;5.37;;;;;;;18.35;48.18;101048.06;5065156;28;20467;-83
2023/06/13 05:48:29;;;;;;;6.20;5.17;;;;;;;18.32;48.35;101056.78;5070346;28;20393;-83
2023/06/13 05:51:03;;;;;;;6.70;6.00;;;;;;;18.14;49.07;101059.78;5060375;28;20492;-83
2023/06/13 05:53:32;;;;;;;14.27;6.23;;;;;;;17.70;50.50;101054.06;5056596;28;20647;-83
2023/06/13 05:56:02;;;;;;;6.73;5.60;;;;;;;17.80;51.09;101058.91;5063013;28;20492;-82
2023/06/13 05:58:32;;;;;;;6.40;5.87;;;;;;;17.96;50.10;101047.13;5047196;28;20914;-83
2023/06/13 06:01:01;;;;;;;10.70;5.67;;;;;;;18.05;49.39;101051.13;5043188;28;20423;-82
2023/06/13 06:03:31;;;;;;;6.80;6.20;;;;;;;18.01;49.77;101049.16;5039598;28;20410;-82
2023/06/13 06:06:02;;;;;;;13.13;6.07;;;;;;;18.07;49.75;101070.03;5045077;28;20456;-83
2023/06/13 06:08:31;;;;;;;6.03;5.00;;;;;;;18.11;49.63;101054.78;5048272;28;20428;-82
2023/06/13 06:11:01;;;;;;;6.30;5.67;;;;;;;18.18;49.73;101044.50;5039066;28;20753;-82
2023/06/13 06:13:30;;;;;;;6.97;6.00;;;;;;;18.32;48.96;101051.31;5046327;28;20410;-82
2023/06/13 06:16:00;;;;;;;7.10;6.50;;;;;;;18.33;49.62;101050.22;5044805;28;20578;-82
2023/06/13 06:18:29;;;;;;;7.53;6.03;;;;;;;18.50;49.37;101042.81;5026364;28;20498;-82
2023/06/13 06:21:00;;;;;;;6.40;5.67;;;;;;;18.46;49.70;101035.34;5047319;28;20784;-82
2023/06/13 06:23:31;;;;;;;10.10;6.20;;;;;;;18.32;49.82;101045.81;5046917;28;20831;-81
2023/06/13 06:26:00;;;;;;;12.10;6.27;;;;;;;18.46;49.39;101052.63;5049733;28;20434;-81
2023/06/13 06:28:29;;;;;;;5.50;5.00;;;;;;;18.44;49.31;101048.47;5052401;28;20449;-84
2023/06/13 06:31:00;;;;;;;7.23;5.97;;;;;;;18.60;48.65;101056.69;5063540;28;20409;-83
2023/06/13 06:33:29;;;;;;;7.30;6.60;;;;;;;18.60;47.75;101066.84;5059284;28;20410;-83
2023/06/13 06:35:59;;;;;;;6.20;5.70;;;;;;;18.78;47.76;101063.00;5062555;28;20463;-83
2023/06/13 06:38:28;;;;;;;7.17;5.40;;;;;;;19.08;45.64;101060.66;5052175;28;20471;-82
2023/06/13 06:40:59;;;;;;;7.93;6.10;;;;;;;19.19;44.33;101048.75;5039128;28;20451;-82
2023/06/13 06:43:28;;;;;;;6.93;5.47;;;;;;;19.35;43.97;101050.59;5047421;28;20530;-82
2023/06/13 06:46:07;;;;;;;8.13;6.10;;;;;;;19.40;43.65;101045.19;5051920;28;20435;-82
2023/06/13 06:48:39;;;;;;;6.57;5.97;;;;;;;19.41;43.15;101043.25;5041514;28;20429;-81
2023/06/13 06:51:08;;;;;;;5.80;5.13;;;;;;;19.42;43.37;101034.75;5043196;28;20502;-84
2023/06/13 06:53:39;;;;;;;8.83;5.50;;;;;;;19.48;42.94;101038.41;5044653;28;20442;-79
2023/06/13 06:56:10;;;;;;;6.67;5.27;;;;;;;19.27;42.75;101042.81;5042047;28;20455;-82
2023/06/13 06:58:39;;;;;;;5.47;4.30;;;;;;;19.27;42.62;101031.81;5054777;28;20464;-81
2023/06/13 07:01:19;;;;;;;8.03;5.13;;;;;;;19.34;42.16;101032.47;5043720;28;20422;-85
2023/06/13 07:03:48;;;;;;;6.63;5.87;;;;;;;19.64;41.72;101025.69;5041573;28;21015;-83
2023/06/13 07:06:19;;;;;;;6.70;5.50;;;;;;;20.14;41.41;101022.59;5032391;28;20506;-81
2023/06/13 07:08:48;;;;;;;7.47;5.20;;;;;;;20.52;41.30;101021.53;5040634;28;20399;-85
2023/06/13 07:11:19;;;;;;;10.20;5.80;;;;;;;20.59;41.03;101031.19;5040145;28;20399;-84
2023/06/13 07:13:48;;;;;;;6.93;5.40;;;;;;;20.57;40.91;101027.06;5052485;28;20438;-84
2023/06/13 07:16:18;;;;;;;5.47;4.97;;;;;;;20.55;40.45;101032.00;5056578;28;20445;-83
2023/06/13 07:18:47;;;;;;;5.63;4.90;;;;;;;20.24;40.78;101028.97;5046258;28;20819;-83
2023/06/13 07:21:16;;;;;;;8.53;5.50;;;;;;;20.19;40.55;101028.94;5041840;28;20513;-82
2023/06/13 07:23:46;;;;;;;5.40;4.90;;;;;;;19.96;40.75;101030.13;5043042;28;20414;-84
2023/06/13 07:26:41;;;;;;;5.43;4.53;;;;;;;19.96;40.96;101032.03;5034347;28;20438;-83
2023/06/13 07:29:11;;;;;;;5.13;4.33;;;;;;;20.17;40.83;101039.38;5052814;28;20427;-84
2023/06/13 07:31:40;;;;;;;8.80;6.97;;;;;;;20.27;40.68;101036.72;5054368;28;20921;-84
2023/06/13 07:34:10;;;;;;;9.30;5.60;;;;;;;20.33;41.22;101030.19;5042192;28;20452;-82
2023/06/13 07:37:00;;;;;;;9.90;4.80;;;;;;;20.43;41.17;101034.94;5050301;28;20433;-84
2023/06/13 07:39:31;;;;;;;6.10;5.50;;;;;;;20.36;41.54;101032.41;5054007;28;20473;-83
2023/06/13 07:42:02;;;;;;;8.77;4.60;;;;;;;20.93;40.94;101042.69;5048050;28;20406;-83
2023/06/13 07:44:31;;;;;;;7.93;5.83;;;;;;;20.73;41.36;101040.63;5053360;28;20436;-83
2023/06/13 07:47:03;;;;;;;9.30;6.17;;;;;;;20.63;41.50;101046.06;5055629;28;20438;-81
2023/06/13 07:49:32;;;;;;;8.87;6.60;;;;;;;21.01;40.71;101044.91;5058677;28;20423;-82
2023/06/13 07:52:01;;;;;;;6.67;5.00;;;;;;;20.81;41.69;101047.56;5052966;28;20474;-82
2023/06/13 07:54:30;;;;;;;6.30;5.53;;;;;;;20.68;40.26;101048.84;5062806;28;20410;-83
2023/06/13 07:57:01;;;;;;;8.67;5.13;;;;;;;20.73;40.03;101056.31;5057887;28;20437;-84
2023/06/13 07:59:43;;;;;;;6.90;5.43;;;;;;;20.56;40.19;101048.22;5056024;28;20406;-82
2023/06/13 08:02:12;;;;;;;10.33;5.37;;;;;;;20.53;40.55;101058.91;5050442;28;20422;-82
2023/06/13 08:04:46;;;;;;;7.57;5.67;;;;;;;20.66;40.58;101050.22;5047166;28;20430;-81
2023/06/13 08:07:40;;;;;;;6.70;5.10;;;;;;;20.44;40.73;101050.34;5046448;28;20413;-82
2023/06/13 08:10:14;;;;;;;5.80;5.10;;;;;;;20.11;41.85;101039.59;5052529;28;20420;-82
2023/06/13 08:12:47;;;;;;;5.53;4.93;;;;;;;20.43;41.13;101032.19;5056597;28;20424;-84
2023/06/13 08:15:21;;;;;;;7.13;6.00;;;;;;;20.51;41.29;101036.38;5052582;28;20446;-83
2023/06/13 08:17:54;;;;;;;6.20;5.30;;;;;;;20.52;41.27;101040.78;5060435;28;20463;-85
2023/06/13 08:20:32;;;;;;;6.73;6.10;;;;;;;20.76;40.52;101029.13;5049585;28;20470;-85
2023/06/13 08:23:12;;;;;;;10.07;5.30;;;;;;;20.71;39.99;101031.00;5058042;28;20486;-82
2023/06/13 08:25:51;;;;;;;12.80;4.70;;;;;;;20.67;40.27;101021.63;5055332;28;20498;-85
2023/06/13 08:28:23;;;;;;;5.60;5.10;;;;;;;20.70;39.82;101018.34;5061378;28;20473;-83
2023/06/13 08:30:56;;;;;;;7.47;5.40;;;;;;;20.81;39.67;101014.56;5059765;28;20419;-84
2023/06/13 08:33:45;;;;;;;9.90;4.90;;;;;;;21.20;38.84;101028.81;5060475;28;20422;-83
2023/06/13 08:36:40;;;;;;;6.03;5.43;;;;;;;21.41;38.40;101025.03;5057930;28;20519;-83
2023/06/13 08:39:16;;;;;;;9.23;5.10;;;;;;;21.48;38.46;101030.28;5054776;28;20489;-82
2023/06/13 08:41:50;;;;;;;13.90;5.00;;;;;;;21.39;38.63;101035.50;5059820;28;20435;-83
2023/06/13 08:44:25;;;;;;;6.20;4.90;;;;;;;21.22;38.80;101021.94;5064756;28;20410;-85
2023/06/13 08:50:24;;;;;;;7.63;5.23;;;;;;;21.25;39.30;101026.09;5061810;28;20394;-83
2023/06/13 08:56:27;;;;;;;6.17;5.40;;;;;;;21.24;39.45;101022.50;5056748;28;20450;-85
2023/06/13 08:59:05;;;;;;;6.30;4.90;;;;;;;21.68;39.21;101024.81;5064034;28;20418;-84
2023/06/13 09:01:37;;;;;;;12.27;6.07;;;;;;;22.19;38.01;101028.47;5067944;28;20429;-83
2023/06/13 09:04:10;;;;;;;7.80;5.40;;;;;;;22.35;37.80;101032.06;5062238;28;20403;-84
2023/06/13 09:06:40;;;;;;;4.53;3.97;;;;;;;22.34;36.50;101038.66;5067226;28;20481;-84
2023/06/13 09:12:59;;;;;;;8.40;4.27;;;;;;;22.21;36.91;101025.44;5054882;28;20414;-82
2023/06/13 09:19:09;;;;;;;9.53;4.70;;;;;;;22.62;36.62;101027.03;5054493;28;20567;-82
2023/06/13 09:21:54;;;;;;;5.87;4.33;;;;;;;22.44;35.95;101024.88;5050464;28;20482;-82
2023/06/13 09:24:24;;;;;;;5.20;3.83;;;;;;;22.42;36.29;101022.38;5047362;28;20443;-82
2023/06/13 09:27:40;;;;;;;8.63;4.20;;;;;;;22.74;34.98;101024.84;5048092;28;20452;-82
2023/06/13 09:30:37;;;;;;;4.83;4.33;;;;;;;23.05;34.19;101022.81;5053452;28;20789;-82
2023/06/13 09:34:24;;;;;;;4.90;3.80;;;;;;;22.87;31.78;101024.25;5062461;28;20463;-83
2023/06/13 09:37:14;;;;;;;5.60;4.40;;;;;;;22.94;32.97;101035.84;5045787;28;20520;-83
2023/06/13 09:39:50;;;;;;;4.40;3.97;;;;;;;22.88;32.96;101025.91;5061397;28;20437;-85
2023/06/13 09:42:38;;;;;;;6.37;4.10;;;;;;;23.18;32.95;101026.91;5064944;28;20501;-84
2023/06/13 09:45:12;;;;;;;5.83;4.27;;;;;;;23.25;32.17;101021.91;5066971;28;20430;-85
2023/06/13 09:47:44;;;;;;;9.00;4.30;;;;;;;23.19;32.46;101017.53;5066596;28;20414;-83
2023/06/13 09:50:13;;;;;;;4.53;3.73;;;;;;;23.07;31.47;101019.78;5063611;28;20431;-84
2023/06/13 09:52:46;;;;;;;4.20;3.80;;;;;;;23.05;32.19;101020.03;5062323;28;20448;-85
2023/06/13 09:55:15;;;;;;;5.43;3.57;;;;;;;22.96;31.97;101033.59;5057101;28;20442;-85
2023/06/13 09:57:44;;;;;;;4.33;3.93;;;;;;;23.12;30.62;101022.50;5047055;28;20434;-83
2023/06/13 10:00:23;;;;;;;5.67;3.80;;;;;;;23.27;31.15;101027.97;5041056;28;20482;-86
2023/06/13 10:02:53;;;;;;;6.43;4.03;;;;;;;23.30;31.20;101021.88;5040500;28;20430;-82
2023/06/13 10:05:27;;;;;;;6.30;3.47;;;;;;;23.26;31.53;101023.56;5037334;28;20489;-83
2023/06/13 10:07:58;;;;;;;5.50;4.77;;;;;;;22.86;32.30;101030.88;5039970;28;20435;-83
2023/06/13 10:10:27;;;;;;;4.37;3.80;;;;;;;;;;5045704;28;20461;-83
2023/06/13 10:13:00;;;;;;;5.47;4.43;;;;;;;23.21;32.46;101023.56;5039888;28;20764;-83
2023/06/13 10:15:34;;;;;;;6.63;4.97;;;;;;;23.30;32.46;101014.41;5043726;28;20848;-85
2023/06/13 10:18:10;;;;;;;5.20;4.70;;;;;;;23.49;33.00;101013.78;5051021;28;20489;-82
2023/06/13 10:20:41;;;;;;;6.57;4.50;;;;;;;23.85;32.59;101014.41;5054240;28;20447;-84
2023/06/13 10:23:14;;;;;;;5.63;3.90;;;;;;;24.01;32.29;101013.97;5055517;28;20395;-84
2023/06/13 10:25:45;;;;;;;6.23;4.97;;;;;;;24.13;31.80;101011.69;5050091;28;20467;-83
2023/06/13 10:28:25;;;;;;;5.80;5.27;;;;;;;23.86;32.53;101014.13;5059373;28;20413;-82
2023/06/13 10:31:10;;;;;;;4.90;4.40;;;;;;;23.93;31.55;101011.84;5043092;28;20398;-82
2023/06/13 10:34:11;;;;;;;7.80;4.20;;;;;;;23.78;31.52;100998.97;5038018;28;20466;-83
2023/06/13 10:37:05;;;;;;;5.87;3.73;;;;;;;24.15;31.50;101008.63;5004069;28;20497;-82
2023/06/13 10:40:07;;;;;;;5.03;3.77;;;;;;;24.03;31.49;100995.19;5035874;28;20459;-82
2023/06/13 10:42:41;;;;;;;6.87;4.53;;;;;;;24.03;31.02;101002.66;5035470;28;20430;-82
2023/06/13 10:45:16;;;;;;;4.60;3.90;;;;;;;23.52;31.58;101000.25;5040317;28;20403;-82
2023/06/13 10:47:46;;;;;;;4.60;4.10;;;;;;;23.50;32.18;100996.94;5032928;28;20524;-81
2023/06/13 10:50:16;;;;;;;8.20;4.20;;;;;;;23.52;32.43;101005.78;5031558;28;20417;-81
2023/06/13 10:52:48;;;;;;;4.47;3.50;;;;;;;23.26;32.46;101005.06;5044612;28;20430;-82
2023/06/13 10:55:27;;;;;;;6.93;3.90;;;;;;;22.91;32.66;101019.81;5045673;28;20473;-83
2023/06/13 10:57:57;;;;;;;9.80;4.83;;;;;;;22.85;32.93;101015.41;5046762;28;20482;-84
2023/06/13 11:00:29;;;;;;;4.20;3.43;;;;;;;22.67;33.31;101013.25;5048297;28;20685;-81
2023/06/13 11:03:00;;;;;;;21.63;4.80;;;;;;;22.69;33.09;101002.75;5056580;28;20446;-82
2023/06/13 11:05:30;;;;;;;8.60;4.53;;;;;;;22.72;33.61;101013.25;5042476;28;20479;-81
2023/06/13 11:08:16;;;;;;;7.23;4.10;;;;;;;22.67;32.01;101018.75;5046426;28;20467;-80
2023/06/13 11:10:47;;;;;;;4.30;3.40;;;;;;;22.62;31.93;101013.25;5041038;28;20424;-81
2023/06/13 11:13:21;;;;;;;4.70;3.40;;;;;;;22.96;32.28;101030.84;5047364;28;20431;-81
2023/06/13 11:15:54;;;;;;;9.33;3.70;;;;;;;22.63;31.24;101020.44;5046902;28;20464;-82
2023/06/13 11:18:34;;;;;;;5.07;3.60;;;;;;;22.49;32.17;101020.19;5051189;28;20478;-83
2023/06/13 11:21:04;;;;;;;6.03;3.60;;;;;;;22.47;31.85;101021.53;5042087;28;20430;-81
2023/06/13 11:23:58;;;;;;;4.47;4.07;;;;;;;22.66;30.55;101013.50;5039869;28;20436;-83
2023/06/13 11:26:29;;;;;;;5.20;3.60;;;;;;;22.85;32.18;101029.22;5046617;28;20429;-83
2023/06/13 11:28:58;;;;;;;4.57;3.80;;;;;;;22.77;33.18;101015.19;5043906;28;20455;-81
2023/06/13 11:31:29;;;;;;;5.37;3.53;;;;;;;23.17;33.47;101008.69;5041786;28;20432;-82
2023/06/13 11:34:03;;;;;;;6.57;4.17;;;;;;;23.39;33.58;101000.84;5037801;28;20410;-81
2023/06/13 11:36:37;;;;;;;6.90;3.53;;;;;;;23.38;33.01;100996.44;5030838;28;20502;-81
2023/06/13 11:39:10;;;;;;;3.90;3.50;;;;;;;23.64;32.53;100992.44;5047475;28;20512;-83
2023/06/13 11:41:41;;;;;;;5.00;3.40;;;;;;;23.67;32.42;100993.81;5041892;28;20423;-84
2023/06/13 11:44:10;;;;;;;9.63;4.33;;;;;;;23.28;33.18;100993.75;5031118;28;20476;-84
2023/06/13 11:46:44;;;;;;;4.80;3.97;;;;;;;23.57;33.36;100988.34;5037344;28;20970;-85
2023/06/13 11:49:14;;;;;;;7.43;3.60;;;;;;;24.06;32.37;100997.34;5053437;28;20439;-84
2023/06/13 11:51:44;;;;;;;4.70;4.30;;;;;;;23.84;32.10;100991.47;5037710;28;20467;-85
2023/06/13 11:54:13;;;;;;;3.10;2.40;;;;;;;23.75;28.34;101002.31;5033421;28;20493;-84
2023/06/13 11:56:54;;;;;;;3.20;2.63;;;;;;;23.35;29.24;100991.47;5037500;28;21000;-83
2023/06/13 11:59:25;;;;;;;4.83;3.60;;;;;;;23.45;29.52;100987.84;5038043;28;20463;-83
2023/06/13 12:01:55;;;;;;;7.77;3.70;;;;;;;23.52;29.92;100983.69;5042733;28;20441;-82
2023/06/13 12:04:25;;;;;;;9.87;3.20;;;;;;;23.88;29.61;100986.19;5044987;28;20407;-84
2023/06/13 12:06:55;;;;;;;4.20;2.53;;;;;;;23.88;29.85;100987.00;5046561;28;20422;-82